createdAt,value
2019-01-31T00:02:58.136Z,60218.04
2019-01-31T00:06:03.879Z,60254.61
2019-01-31T00:24:27.554Z,60345.10
2019-01-31T00:27:35.094Z,60364.21
2019-01-31T00:30:40.825Z,60380.70
2019-01-31T00:36:47.148Z,60392.87
2019-01-31T00:39:54.684Z,60405.06
2019-01-31T00:46:13.783Z,60422.03
2019-01-31T00:49:19.517Z,60415.04
2019-01-31T00:52:25.253Z,60435.62
2019-01-31T01:04:46.443Z,60466.51
2019-01-31T01:07:52.182Z,60461.39
2019-01-31T01:10:57.932Z,60468.70
2019-01-31T01:22:58.409Z,60481.13
2019-01-31T01:29:17.761Z,60500.44
2019-01-31T01:32:23.497Z,60511.18
2019-01-31T01:35:29.237Z,60515.67
2019-01-31T01:38:34.967Z,60509.04
2019-01-31T01:41:42.523Z,60499.57
2019-01-31T01:44:48.251Z,60509.12
2019-01-31T01:47:55.792Z,60509.12
2019-01-31T01:54:02.032Z,60521.74
2019-01-31T02:03:09.498Z,60535.58
2019-01-31T02:09:15.691Z,60558.41
2019-01-31T02:12:21.436Z,60563.20
2019-01-31T02:15:28.985Z,60554.25
2019-01-31T02:24:51.969Z,60567.22
2019-01-31T02:27:57.740Z,60561.68
2019-01-31T02:31:03.521Z,60575.95
2019-01-31T02:37:22.547Z,60588.70
2019-01-31T02:40:28.286Z,60601.46
2019-01-31T02:43:35.843Z,60609.42
2019-01-31T02:46:43.390Z,60606.64
2019-01-31T02:52:49.508Z,60632.28
2019-01-31T02:58:55.904Z,60629.09
2019-01-31T03:02:01.639Z,60625.45
2019-01-31T03:05:07.366Z,60635.46
2019-01-31T03:08:13.124Z,60613.31
2019-01-31T03:23:26.672Z,60641.84
2019-01-31T03:29:33.231Z,60645.85
2019-01-31T03:32:38.993Z,60663.73
2019-01-31T03:35:46.507Z,60680.49
2019-01-31T03:41:53.336Z,60684.15
2019-01-31T03:47:59.400Z,60714.96
2019-01-31T03:54:05.650Z,60710.56
2019-01-31T03:57:13.212Z,60722.18
2019-01-31T03:59:39.643Z,60709.79
2019-01-31T04:02:45.379Z,60711.73
2019-01-31T04:08:12.464Z,60734.41
2019-01-31T04:10:38.688Z,60730.17
2019-01-31T04:13:04.813Z,60726.68
2019-01-31T04:15:31.060Z,60739.19
2019-01-31T04:17:57.266Z,60732.35
2019-01-31T04:20:23.499Z,60746.11
2019-01-31T04:22:49.648Z,60755.18
2019-01-31T04:25:15.904Z,60747.57
2019-01-31T04:27:42.030Z,60742.38
2019-01-31T04:30:49.594Z,60758.37
2019-01-31T04:33:15.814Z,60735.29
2019-01-31T04:35:41.947Z,60737.44
2019-01-31T04:38:08.071Z,60743.03
2019-01-31T04:40:34.345Z,60751.45
2019-01-31T04:43:00.567Z,60763.68
2019-01-31T04:45:26.787Z,60764.22
2019-01-31T04:47:56.097Z,60759.44
2019-01-31T04:50:33.542Z,60739.73
2019-01-31T04:52:59.789Z,60747.37
2019-01-31T04:55:26.011Z,60773.80
2019-01-31T04:57:52.150Z,60770.89
2019-01-31T05:00:59.780Z,60784.09
2019-01-31T05:03:25.897Z,60775.48
2019-01-31T05:05:52.136Z,60779.14
2019-01-31T05:08:18.267Z,60778.07
2019-01-31T05:10:44.399Z,60783.41
2019-01-31T05:13:10.619Z,60770.17
2019-01-31T05:15:36.755Z,60783.41
2019-01-31T05:21:16.844Z,60794.06
2019-01-31T05:23:43.052Z,60790.48
2019-01-31T05:26:09.289Z,60793.52
2019-01-31T05:28:35.525Z,60795.64
2019-01-31T05:31:01.755Z,60804.18
2019-01-31T05:33:27.871Z,60805.23
2019-01-31T05:35:54.110Z,60801.06
2019-01-31T05:38:20.370Z,60817.50
2019-01-31T05:40:55.287Z,60805.51
2019-01-31T05:43:14.744Z,60813.23
2019-01-31T05:45:40.974Z,60815.38
2019-01-31T05:48:07.105Z,60826.55
2019-01-31T05:50:33.246Z,60829.56
2019-01-31T05:52:59.372Z,60839.36
2019-01-31T05:55:25.587Z,60845.73
2019-01-31T05:57:51.723Z,60849.46
2019-01-31T06:03:18.162Z,60862.78
2019-01-31T06:05:44.404Z,60847.20
2019-01-31T06:08:10.648Z,60854.52
2019-01-31T06:10:36.860Z,60864.65
2019-01-31T06:13:44.396Z,60867.50
2019-01-31T06:16:10.653Z,60870.79
2019-01-31T06:18:36.885Z,60877.18
2019-01-31T06:21:03.151Z,60871.30
2019-01-31T06:23:29.271Z,60883.11
2019-01-31T06:25:55.415Z,60884.91
2019-01-31T06:28:21.644Z,60885.26
2019-01-31T06:30:47.770Z,60892.99
2019-01-31T06:33:14.005Z,60895.86
2019-01-31T06:35:40.224Z,60896.11
2019-01-31T06:38:06.477Z,60894.78
2019-01-31T06:40:32.714Z,60909.19
2019-01-31T06:42:58.859Z,60907.04
2019-01-31T06:45:25.097Z,60899.84
2019-01-31T06:47:51.230Z,60915.59
2019-01-31T06:50:17.454Z,60920.37
2019-01-31T06:52:43.687Z,60919.86
2019-01-31T06:58:23.244Z,60908.91
2019-01-31T07:00:49.467Z,60909.98
2019-01-31T07:03:15.707Z,60922.34
2019-01-31T07:05:41.836Z,60923.06
2019-01-31T07:08:08.075Z,60924.11
2019-01-31T07:10:34.202Z,60938.52
2019-01-31T07:13:00.342Z,60946.53
2019-01-31T07:15:26.564Z,60941.99
2019-01-31T07:17:52.817Z,60950.80
2019-01-31T07:20:19.142Z,60957.21
2019-01-31T07:22:45.393Z,60953.39
2019-01-31T07:25:31.372Z,60964.66
2019-01-31T07:27:57.511Z,60949.89
2019-01-31T07:30:26.720Z,60952.13
2019-01-31T07:32:51.915Z,60948.63
2019-01-31T07:35:18.163Z,60969.45
2019-01-31T07:37:44.410Z,60973.73
2019-01-31T07:40:51.934Z,60975.34
2019-01-31T07:43:18.172Z,60976.21
2019-01-31T07:45:44.400Z,60976.56
2019-01-31T07:48:10.639Z,60971.85
2019-01-31T07:50:36.867Z,60988.68
2019-01-31T07:53:03.707Z,60982.20
2019-01-31T07:55:29.928Z,60995.09
2019-01-31T07:57:56.142Z,60997.75
2019-01-31T08:01:03.691Z,60990.01
2019-01-31T08:03:29.923Z,60983.86
2019-01-31T08:05:56.046Z,61008.97
2019-01-31T08:08:22.303Z,61013.25
2019-01-31T08:10:48.529Z,61017.53
2019-01-31T08:13:14.779Z,61019.11
2019-01-31T08:15:41.012Z,61025.52
2019-01-31T08:21:14.591Z,61047.43
2019-01-31T08:23:40.811Z,61051.17
2019-01-31T08:26:06.942Z,61043.75
2019-01-31T08:28:33.176Z,61052.25
2019-01-31T08:30:59.403Z,61061.86
2019-01-31T08:33:28.362Z,61056.53
2019-01-31T08:35:53.696Z,61060.27
2019-01-31T08:38:19.915Z,61068.27
2019-01-31T08:40:46.149Z,61059.45
2019-01-31T08:43:12.275Z,61068.00
2019-01-31T08:45:38.521Z,61073.87
2019-01-31T08:48:04.844Z,61089.65
2019-01-31T08:50:31.187Z,61090.19
2019-01-31T08:52:57.421Z,61096.06
2019-01-31T08:55:23.638Z,61093.69
2019-01-31T08:57:49.745Z,61104.61
2019-01-31T09:00:35.729Z,61111.56
2019-01-31T09:03:01.957Z,61100.93
2019-01-31T09:05:28.194Z,61116.89
2019-01-31T09:08:35.731Z,61119.05
2019-01-31T09:11:01.980Z,61118.76
2019-01-31T09:13:28.211Z,61138.54
2019-01-31T09:15:54.474Z,61126.78
2019-01-31T09:18:20.618Z,61132.41
2019-01-31T09:21:26.524Z,61127.46
2019-01-31T09:24:32.252Z,61124.45
2019-01-31T09:27:37.997Z,61131.07
2019-01-31T09:30:43.763Z,61139.90
2019-01-31T09:33:49.401Z,61136.90
2019-01-31T09:36:37.183Z,61159.54
2019-01-31T09:42:56.753Z,61148.18
2019-01-31T09:46:02.489Z,61158.96
2019-01-31T09:49:10.034Z,61145.75
2019-01-31T09:52:15.677Z,61165.59
2019-01-31T10:01:23.480Z,61180.82
2019-01-31T10:04:31.022Z,61192.33
2019-01-31T10:10:50.523Z,61205.17
2019-01-31T10:13:56.458Z,61212.67
2019-01-31T10:26:05.172Z,61234.09
2019-01-31T10:29:10.800Z,61229.34
2019-01-31T10:32:16.547Z,61238.38
2019-01-31T10:41:36.524Z,61251.65
2019-01-31T10:50:43.189Z,61265.30
2019-01-31T10:53:48.943Z,61279.05
2019-01-31T10:56:54.674Z,61271.62
2019-01-31T11:00:02.231Z,61290.84
2019-01-31T11:03:07.984Z,61299.03
2019-01-31T11:09:14.724Z,61293.78
2019-01-31T11:12:20.462Z,61296.73
2019-01-31T11:15:28.016Z,61285.97
2019-01-31T11:24:24.757Z,61289.58
2019-01-31T11:27:30.489Z,61301.56
2019-01-31T11:30:36.263Z,61309.07
2019-01-31T11:33:41.991Z,61308.34
2019-01-31T11:36:49.546Z,61294.65
2019-01-31T11:42:56.322Z,61308.13
2019-01-31T11:49:02.673Z,61306.91
2019-01-31T11:55:01.987Z,61315.49
2019-01-31T11:58:07.829Z,61311.65
2019-01-31T12:00:34.058Z,61328.35
2019-01-31T12:03:00.292Z,61327.62
2019-01-31T12:05:26.535Z,61323.43
2019-01-31T12:07:52.760Z,61326.99
2019-01-31T12:10:19.109Z,61336.94
2019-01-31T12:12:52.624Z,61327.18
2019-01-31T12:15:18.897Z,61336.94
2019-01-31T12:17:45.139Z,61332.88
2019-01-31T12:20:52.711Z,61331.73
2019-01-31T12:26:14.001Z,61349.52
2019-01-31T12:28:40.845Z,61358.93
2019-01-31T12:31:07.090Z,61358.38
2019-01-31T12:33:33.219Z,61357.30
2019-01-31T12:35:59.568Z,61358.38
2019-01-31T12:41:33.135Z,61362.68
2019-01-31T12:43:59.269Z,61354.87
2019-01-31T12:46:25.408Z,61363.50
2019-01-31T12:48:51.674Z,61372.32
2019-01-31T12:51:17.914Z,61372.32
2019-01-31T12:53:44.146Z,61368.81
2019-01-31T12:56:10.486Z,61384.65
2019-01-31T12:58:36.620Z,61387.35
2019-01-31T13:01:44.165Z,61374.28
2019-01-31T13:04:10.312Z,61387.35
2019-01-31T13:06:36.456Z,61384.11
2019-01-31T13:09:44.004Z,61388.95
2019-01-31T13:12:10.240Z,61385.54
2019-01-31T13:14:36.367Z,61396.69
2019-01-31T13:19:58.048Z,61392.52
2019-01-31T13:22:24.749Z,61391.08
2019-01-31T13:24:50.972Z,61389.48
2019-01-31T13:27:17.221Z,61388.95
2019-01-31T13:29:43.446Z,61392.16
2019-01-31T13:32:09.578Z,61388.31
2019-01-31T13:34:35.817Z,61399.14
2019-01-31T13:37:02.045Z,61400.21
2019-01-31T13:39:28.298Z,61402.35
2019-01-31T13:41:54.414Z,61402.35
2019-01-31T13:44:21.478Z,61406.11
2019-01-31T13:46:47.698Z,61405.57
2019-01-31T13:49:13.855Z,61405.57
2019-01-31T13:51:40.075Z,61399.58
2019-01-31T13:54:06.335Z,61406.65
2019-01-31T13:56:32.569Z,61404.51
2019-01-31T13:58:58.821Z,61396.91
2019-01-31T14:01:25.056Z,61385.68
2019-01-31T14:03:51.324Z,61401.29
2019-01-31T14:06:17.613Z,61392.42
2019-01-31T14:08:43.775Z,61394.02
2019-01-31T14:11:10.002Z,61403.43
2019-01-31T14:13:36.232Z,61394.56
2019-01-31T14:18:56.596Z,61400.75
2019-01-31T14:21:22.845Z,61390.61
2019-01-31T14:23:48.999Z,61391.88
2019-01-31T14:26:15.228Z,61403.43
2019-01-31T14:28:41.474Z,61401.81
2019-01-31T14:31:07.717Z,61394.56
2019-01-31T14:33:33.945Z,61405.57
2019-01-31T14:38:54.232Z,61407.52
2019-01-31T14:41:20.475Z,61408.79
2019-01-31T14:46:40.274Z,61410.93
2019-01-31T14:49:06.428Z,61407.85
2019-01-31T14:51:32.656Z,61410.38
2019-01-31T14:53:58.896Z,61410.93
2019-01-31T14:56:25.144Z,61407.73
2019-01-31T14:58:51.283Z,61409.84
2019-01-31T15:01:17.531Z,61408.79
2019-01-31T15:03:43.764Z,61409.84
2019-01-31T15:06:09.916Z,61406.54
2019-01-31T15:08:36.155Z,61410.93
2019-01-31T15:11:02.523Z,61410.93
2019-01-31T15:13:28.635Z,61408.79
2019-01-31T15:15:54.783Z,61411.46
2019-01-31T15:18:21.247Z,61412.52
2019-01-31T15:20:47.520Z,61404.37
2019-01-31T15:23:13.752Z,61411.46
2019-01-31T15:25:39.978Z,61402.78
2019-01-31T15:28:06.138Z,61410.38
2019-01-31T15:30:52.139Z,61409.84
2019-01-31T15:33:18.412Z,61410.38
2019-01-31T15:35:44.546Z,61407.85
2019-01-31T15:38:10.875Z,61409.84
2019-01-31T15:41:18.426Z,61401.51
2019-01-31T15:43:44.697Z,61409.84
2019-01-31T15:46:10.937Z,61411.98
2019-01-31T15:48:37.068Z,61414.68
2019-01-31T15:51:44.628Z,61403.65
2019-01-31T15:54:52.201Z,61411.98
2019-01-31T15:57:18.562Z,61393.36
2019-01-31T15:59:44.890Z,61404.04
2019-01-31T16:02:11.333Z,61409.84
2019-01-31T16:04:37.582Z,61403.32
2019-01-31T16:07:03.821Z,61411.98
2019-01-31T16:09:30.048Z,61404.91
2019-01-31T16:11:56.287Z,61415.22
2019-01-31T16:14:22.551Z,61413.60
2019-01-31T16:16:48.678Z,61412.87
2019-01-31T16:19:14.902Z,61406.54
2019-01-31T16:21:41.157Z,61416.82
2019-01-31T16:24:07.285Z,61418.44
2019-01-31T16:26:33.540Z,61401.96
2019-01-31T16:28:59.767Z,61418.44
2019-01-31T16:31:25.903Z,61418.44
2019-01-31T16:33:52.131Z,61424.34
2019-01-31T16:36:18.383Z,61411.07
2019-01-31T16:38:44.627Z,61428.63
2019-01-31T16:41:10.853Z,61427.01
2019-01-31T16:43:37.093Z,61424.88
2019-01-31T16:49:17.142Z,61425.95
2019-01-31T16:51:45.429Z,61428.09
2019-01-31T16:54:11.508Z,61419.21
2019-01-31T16:56:37.746Z,61419.21
2019-01-31T16:59:04.103Z,61429.17
2019-01-31T17:01:30.338Z,61426.47
2019-01-31T17:03:56.497Z,61431.85
2019-01-31T17:06:22.637Z,61421.16
2019-01-31T17:08:48.883Z,61430.23
2019-01-31T17:11:15.122Z,61431.85
2019-01-31T17:13:41.269Z,61430.77
2019-01-31T17:16:07.494Z,61430.23
2019-01-31T17:18:33.739Z,61427.50
2019-01-31T17:20:59.964Z,61430.23
2019-01-31T17:23:26.215Z,61432.93
2019-01-31T17:25:52.438Z,61434.53
2019-01-31T17:28:18.690Z,61432.93
2019-01-31T17:30:44.934Z,61424.57
2019-01-31T17:33:11.185Z,61415.90
2019-01-31T17:35:37.406Z,61431.85
2019-01-31T17:38:03.761Z,61433.45
2019-01-31T17:40:51.565Z,61433.99
2019-01-31T17:43:17.817Z,61434.53
2019-01-31T17:45:44.057Z,61434.53
2019-01-31T17:51:04.125Z,61429.69
2019-01-31T17:53:30.373Z,61419.21
2019-01-31T17:55:56.613Z,61428.09
2019-01-31T17:58:22.845Z,61422.71
2019-01-31T18:03:23.259Z,61419.50
2019-01-31T18:05:49.602Z,61416.82
2019-01-31T18:08:15.836Z,61414.14
2019-01-31T18:10:42.074Z,61396.58
2019-01-31T18:13:08.300Z,61411.46
2019-01-31T18:15:41.780Z,61404.37
2019-01-31T18:23:55.156Z,61411.98
2019-01-31T18:26:21.398Z,61410.93
2019-01-31T18:28:47.626Z,61407.73
2019-01-31T18:31:13.898Z,61390.52
2019-01-31T18:33:40.159Z,61408.27
2019-01-31T18:36:06.411Z,61405.57
2019-01-31T18:38:32.639Z,61404.51
2019-01-31T18:40:58.879Z,61406.11
2019-01-31T18:43:25.215Z,61407.73
2019-01-31T18:45:53.561Z,61399.04
2019-01-31T18:48:19.526Z,61401.29
2019-01-31T18:50:45.777Z,61401.81
2019-01-31T18:53:12.009Z,61393.48
2019-01-31T18:55:38.261Z,61392.42
2019-01-31T19:00:54.672Z,61398.60
2019-01-31T19:03:20.908Z,61397.00
2019-01-31T19:05:47.039Z,61395.92
2019-01-31T19:08:13.301Z,61388.50
2019-01-31T19:10:43.424Z,61392.70
2019-01-31T19:13:07.725Z,61385.29
2019-01-31T19:15:33.985Z,61379.74
2019-01-31T19:18:05.905Z,61389.48
2019-01-31T19:21:09.753Z,61382.42
2019-01-31T19:23:36.022Z,61385.45
2019-01-31T19:26:43.619Z,61393.78
2019-01-31T19:29:09.856Z,61387.35
2019-01-31T19:31:35.991Z,61386.81
2019-01-31T19:34:02.237Z,61384.11
2019-01-31T19:36:30.901Z,61380.89
2019-01-31T19:38:56.635Z,61379.84
2019-01-31T19:41:22.927Z,61380.36
2019-01-31T19:43:49.121Z,61377.14
2019-01-31T19:46:16.825Z,61366.86
2019-01-31T19:48:43.496Z,61373.38
2019-01-31T19:51:09.748Z,61364.72
2019-01-31T19:53:35.992Z,61362.37
2019-01-31T19:56:02.217Z,61369.11
2019-01-31T19:58:28.355Z,61366.95
2019-01-31T20:00:54.599Z,61364.82
2019-01-31T20:04:02.152Z,61351.65
2019-01-31T20:06:28.423Z,61360.52
2019-01-31T20:08:54.654Z,61349.52
2019-01-31T20:11:20.877Z,61349.52
2019-01-31T20:13:47.121Z,61350.57
2019-01-31T20:16:15.997Z,61348.09
2019-01-31T20:18:41.405Z,61338.70
2019-01-31T20:21:07.642Z,61342.55
2019-01-31T20:23:33.892Z,61340.93
2019-01-31T20:26:00.123Z,61351.95
2019-01-31T20:28:26.382Z,61343.09
2019-01-31T20:30:52.609Z,61349.26
2019-01-31T20:33:18.749Z,61348.20
2019-01-31T20:35:44.989Z,61348.20
2019-01-31T20:38:11.141Z,61331.38
2019-01-31T20:43:51.302Z,61341.75
2019-01-31T20:46:17.527Z,61341.75
2019-01-31T20:48:43.767Z,61340.69
2019-01-31T20:51:12.641Z,61339.61
2019-01-31T20:53:38.156Z,61327.44
2019-01-31T20:56:04.393Z,61340.93
2019-01-31T20:58:30.631Z,61335.91
2019-01-31T21:00:56.881Z,61337.38
2019-01-31T21:03:24.833Z,61347.66
2019-01-31T21:05:51.170Z,61351.41
2019-01-31T21:08:17.527Z,61343.71
2019-01-31T21:10:43.754Z,61341.75
2019-01-31T21:16:03.789Z,61331.29
2019-01-31T21:18:29.914Z,61329.83
2019-01-31T21:20:56.152Z,61334.69
2019-01-31T21:23:22.392Z,61339.07
2019-01-31T21:25:48.615Z,61330.75
2019-01-31T21:28:14.848Z,61331.47
2019-01-31T21:30:41.192Z,61333.18
2019-01-31T21:33:07.325Z,61330.51
2019-01-31T21:38:27.745Z,61323.43
2019-01-31T21:40:53.988Z,61308.30
2019-01-31T21:43:20.215Z,61325.68
2019-01-31T21:45:46.466Z,61317.89
2019-01-31T21:48:12.713Z,61311.89
2019-01-31T21:50:38.945Z,61329.43
2019-01-31T21:55:56.805Z,61318.53
2019-01-31T21:58:23.044Z,61331.57
2019-01-31T22:00:49.301Z,61328.16
2019-01-31T22:03:15.540Z,61326.75
2019-01-31T22:05:41.792Z,61310.93
2019-01-31T22:08:08.027Z,61318.71
2019-01-31T22:13:08.308Z,61301.52
2019-01-31T22:16:15.856Z,61312.52
2019-01-31T22:18:42.083Z,61321.92
2019-01-31T22:21:08.336Z,61320.84
2019-01-31T22:23:34.468Z,61318.71
2019-01-31T22:26:00.718Z,61305.91
2019-01-31T22:28:26.941Z,61316.57
2019-01-31T22:30:53.190Z,61317.63
2019-01-31T22:33:19.418Z,61316.36
2019-01-31T22:35:45.661Z,61297.77
2019-01-31T22:38:11.888Z,61314.23
2019-01-31T22:40:38.135Z,61297.77
2019-01-31T22:43:04.369Z,61312.82
2019-01-31T22:45:30.618Z,61313.36
2019-01-31T22:47:56.842Z,61304.69
2019-01-31T22:51:04.405Z,61312.82
2019-01-31T22:53:30.650Z,61311.74
2019-01-31T22:55:56.806Z,61301.66
2019-01-31T22:58:23.036Z,61309.07
2019-01-31T23:01:30.601Z,61307.99
2019-01-31T23:03:56.857Z,61307.99
2019-01-31T23:06:23.094Z,61307.45
2019-01-31T23:08:49.334Z,61307.99
2019-01-31T23:11:15.576Z,61308.53
2019-01-31T23:13:41.801Z,61307.99
2019-01-31T23:16:49.455Z,61304.77
2019-01-31T23:19:15.784Z,61304.24
2019-01-31T23:21:42.023Z,61302.10
2019-01-31T23:24:08.151Z,61301.56
2019-01-31T23:26:36.374Z,61302.10
2019-01-31T23:29:02.515Z,61302.43
2019-01-31T23:31:28.763Z,61300.48
2019-01-31T23:33:54.990Z,61293.87
2019-01-31T23:36:21.220Z,61291.38
2019-01-31T23:38:47.470Z,61283.07
2019-01-31T23:41:13.707Z,61284.12
2019-01-31T23:46:33.750Z,61280.91
2019-01-31T23:48:59.987Z,61284.96
2019-01-31T23:51:26.231Z,61286.55
2019-01-31T23:53:52.365Z,61283.79
2019-01-31T23:56:18.499Z,61293.52
2019-01-31T23:58:44.637Z,61290.30
